createdAt,value
2019-05-15T00:00:50.968Z,1.90
2019-05-15T00:03:22.293Z,1.70
2019-05-15T00:05:51.692Z,2.10
2019-05-15T00:08:21.200Z,1.87
2019-05-15T00:10:50.479Z,1.70
2019-05-15T00:13:19.898Z,2.10
2019-05-15T00:15:49.399Z,2.00
2019-05-15T00:18:18.810Z,1.60
2019-05-15T00:20:49.740Z,1.77
2019-05-15T00:23:19.350Z,1.90
2019-05-15T00:25:49.625Z,1.67
2019-05-15T00:28:19.073Z,1.90
2019-05-15T00:30:49.599Z,1.93
2019-05-15T00:33:19.432Z,2.07
2019-05-15T00:35:49.936Z,2.20
2019-05-15T00:38:19.442Z,2.17
2019-05-15T00:40:49.541Z,1.90
2019-05-15T00:43:19.431Z,1.90
2019-05-15T00:45:49.000Z,2.20
2019-05-15T00:48:18.659Z,1.97
2019-05-15T00:50:49.428Z,2.00
2019-05-15T00:53:19.584Z,1.80
2019-05-15T00:55:49.255Z,1.90
2019-05-15T00:58:19.911Z,2.20
2019-05-15T01:00:49.568Z,2.10
2019-05-15T01:03:19.098Z,2.20
2019-05-15T01:05:48.493Z,1.83
2019-05-15T01:08:19.256Z,1.73
2019-05-15T01:10:49.049Z,2.00
2019-05-15T01:13:19.100Z,2.10
2019-05-15T01:15:49.087Z,2.20
2019-05-15T01:18:19.289Z,1.97
2019-05-15T01:20:49.330Z,2.47
2019-05-15T01:23:20.147Z,2.20
2019-05-15T01:25:49.645Z,2.13
2019-05-15T01:28:19.113Z,2.20
2019-05-15T01:30:48.806Z,2.20
2019-05-15T01:33:18.915Z,2.33
2019-05-15T01:35:48.873Z,2.40
2019-05-15T01:38:18.698Z,2.17
2019-05-15T01:40:48.667Z,2.20
2019-05-15T01:43:18.851Z,1.97
2019-05-15T01:45:49.467Z,2.23
2019-05-15T01:48:19.187Z,2.07
2019-05-15T01:50:49.288Z,2.50
2019-05-15T01:53:19.104Z,2.30
2019-05-15T01:55:48.635Z,2.80
2019-05-15T01:58:18.789Z,2.30
2019-05-15T02:00:48.571Z,2.07
2019-05-15T02:03:18.565Z,2.03
2019-05-15T02:05:49.285Z,2.53
2019-05-15T02:08:19.226Z,2.40
2019-05-15T02:10:49.364Z,2.60
2019-05-15T02:13:19.233Z,2.27
2019-05-15T02:15:48.608Z,2.10
2019-05-15T02:18:19.174Z,2.30
2019-05-15T02:20:55.220Z,2.40
2019-05-15T02:23:27.910Z,2.23
2019-05-15T02:25:58.861Z,2.50
2019-05-15T02:28:28.892Z,2.20
2019-05-15T02:30:58.917Z,2.30
2019-05-15T02:33:30.130Z,2.07
2019-05-15T02:36:01.262Z,2.20
2019-05-15T02:38:30.658Z,2.07
2019-05-15T02:41:00.168Z,2.47
2019-05-15T02:43:30.077Z,2.30
2019-05-15T02:46:00.453Z,2.30
2019-05-15T02:48:30.517Z,2.60
2019-05-15T02:50:59.727Z,2.30
2019-05-15T02:53:35.034Z,2.10
2019-05-15T02:56:09.001Z,2.73
2019-05-15T02:58:39.532Z,2.37
2019-05-15T03:01:09.254Z,2.20
2019-05-15T03:03:39.364Z,2.57
2019-05-15T03:06:10.080Z,2.33
2019-05-15T03:08:40.638Z,2.27
2019-05-15T03:11:10.160Z,2.70
2019-05-15T03:13:39.798Z,2.40
2019-05-15T03:16:10.254Z,2.20
2019-05-15T03:18:41.051Z,2.53
2019-05-15T03:21:10.441Z,2.83
2019-05-15T03:23:40.639Z,2.87
2019-05-15T03:26:15.609Z,2.53
2019-05-15T03:28:49.627Z,2.60
2019-05-15T03:31:40.296Z,2.70
2019-05-15T03:33:54.459Z,2.63
2019-05-15T03:36:23.330Z,3.27
2019-05-15T03:38:51.734Z,2.40
2019-05-15T03:41:21.241Z,2.33
2019-05-15T03:43:50.736Z,2.50
2019-05-15T03:46:20.232Z,2.70
2019-05-15T03:48:49.751Z,2.43
2019-05-15T03:51:19.810Z,2.47
2019-05-15T03:53:51.199Z,2.13
2019-05-15T03:56:20.818Z,2.43
2019-05-15T03:58:50.326Z,2.87
2019-05-15T04:01:30.278Z,2.47
2019-05-15T04:03:51.006Z,2.30
2019-05-15T04:06:20.372Z,2.40
2019-05-15T04:08:50.109Z,2.90
2019-05-15T04:11:20.448Z,2.20
2019-05-15T04:13:50.316Z,2.43
2019-05-15T04:16:19.939Z,3.20
2019-05-15T04:18:49.486Z,3.00
2019-05-15T04:21:19.983Z,2.40
2019-05-15T04:23:50.281Z,2.50
2019-05-15T04:26:19.883Z,2.77
2019-05-15T04:28:49.577Z,2.87
2019-05-15T04:31:19.538Z,2.30
2019-05-15T04:33:49.370Z,2.47
2019-05-15T04:36:19.333Z,2.70
2019-05-15T04:38:49.722Z,3.20
2019-05-15T04:41:20.020Z,3.80
2019-05-15T04:43:49.815Z,2.60
2019-05-15T04:46:19.883Z,2.53
2019-05-15T04:48:50.267Z,2.80
2019-05-15T04:51:19.959Z,2.30
2019-05-15T04:53:50.556Z,2.83
2019-05-15T04:56:20.286Z,3.00
2019-05-15T04:58:50.594Z,3.30
2019-05-15T05:01:20.643Z,3.30
2019-05-15T05:03:50.052Z,3.30
2019-05-15T05:06:20.860Z,3.50
2019-05-15T05:08:50.205Z,3.80
2019-05-15T05:11:23.566Z,3.27
2019-05-15T05:13:50.456Z,4.40
2019-05-15T05:16:19.817Z,3.23
2019-05-15T05:18:49.166Z,2.80
2019-05-15T05:21:18.594Z,2.87
2019-05-15T05:23:48.356Z,2.50
2019-05-15T05:26:18.539Z,2.57
2019-05-15T05:28:49.249Z,2.93
2019-05-15T05:31:19.790Z,3.00
2019-05-15T05:33:49.321Z,2.50
2019-05-15T05:36:18.798Z,2.80
2019-05-15T05:38:49.609Z,3.20
2019-05-15T05:41:19.343Z,6.03
2019-05-15T05:43:49.767Z,3.77
2019-05-15T05:46:19.053Z,4.97
2019-05-15T05:48:48.968Z,3.17
2019-05-15T05:51:19.029Z,3.67
2019-05-15T05:53:48.710Z,4.40
2019-05-15T05:56:18.259Z,4.87
2019-05-15T06:00:55.271Z,3.20
2019-05-15T06:03:24.869Z,3.40
2019-05-15T06:05:54.179Z,3.47
2019-05-15T06:08:23.529Z,5.50
2019-05-15T06:10:52.907Z,3.10
2019-05-15T06:13:22.250Z,3.50
2019-05-15T06:15:51.564Z,4.60
2019-05-15T06:18:21.005Z,4.43
2019-05-15T06:20:50.493Z,3.77
2019-05-15T06:23:25.470Z,3.63
2019-05-15T06:25:50.867Z,3.50
2019-05-15T06:28:20.543Z,4.27
2019-05-15T06:30:49.962Z,4.10
2019-05-15T06:33:19.294Z,4.10
2019-05-15T06:35:49.307Z,5.63
2019-05-15T06:38:19.425Z,3.80
2019-05-15T06:40:53.464Z,5.67
2019-05-15T06:43:22.920Z,5.80
2019-05-15T06:45:52.281Z,6.20
2019-05-15T06:48:21.592Z,4.20
2019-05-15T06:50:50.934Z,4.40
2019-05-15T06:53:20.277Z,4.37
2019-05-15T06:55:49.680Z,4.67
2019-05-15T06:58:38.621Z,3.87
2019-05-15T07:01:08.784Z,4.00
2019-05-15T07:03:39.323Z,4.27
2019-05-15T07:06:09.729Z,5.30
2019-05-15T07:09:02.633Z,4.23
2019-05-15T07:11:33.281Z,5.10
2019-05-15T07:14:02.960Z,5.10
2019-05-15T07:16:32.309Z,4.77
2019-05-15T07:19:01.644Z,4.60
2019-05-15T07:21:31.031Z,4.57
2019-05-15T07:24:00.474Z,5.37
2019-05-15T07:26:29.934Z,4.30
2019-05-15T07:28:59.727Z,4.90
2019-05-15T07:31:59.277Z,4.83
2019-05-15T07:34:28.504Z,4.67
2019-05-15T07:36:59.121Z,4.57
2019-05-15T07:39:28.971Z,6.10
2019-05-15T07:41:58.499Z,6.60
2019-05-15T07:44:28.294Z,4.73
2019-05-15T07:46:58.450Z,5.10
2019-05-15T07:49:28.883Z,4.30
2019-05-15T07:51:59.187Z,5.00
2019-05-15T07:54:30.340Z,4.90
2019-05-15T07:56:59.703Z,5.10
2019-05-15T07:59:29.340Z,5.50
2019-05-15T08:01:58.760Z,5.23
2019-05-15T08:04:30.652Z,5.43
2019-05-15T08:06:59.435Z,5.10
2019-05-15T08:09:29.839Z,4.83
2019-05-15T08:12:01.292Z,5.47
2019-05-15T08:14:30.072Z,5.70
2019-05-15T08:16:59.503Z,6.70
2019-05-15T08:19:29.022Z,5.43
2019-05-15T08:21:59.524Z,5.47
2019-05-15T08:25:11.294Z,5.20
2019-05-15T08:27:38.408Z,4.63
2019-05-15T08:30:09.816Z,4.77
2019-05-15T08:32:39.403Z,4.37
2019-05-15T08:35:08.826Z,4.83
2019-05-15T08:37:38.544Z,4.23
2019-05-15T08:40:08.709Z,4.27
2019-05-15T08:42:41.698Z,5.90
2019-05-15T08:45:09.563Z,3.80
2019-05-15T08:47:38.979Z,3.60
2019-05-15T08:50:09.871Z,3.60
2019-05-15T08:52:39.550Z,3.70
2019-05-15T08:55:08.945Z,3.70
2019-05-15T08:57:38.499Z,3.73
2019-05-15T09:00:09.744Z,3.70
2019-05-15T09:02:39.198Z,3.70
2019-05-15T09:05:08.740Z,3.43
2019-05-15T09:07:38.945Z,3.67
2019-05-15T09:10:09.194Z,4.17
2019-05-15T09:12:39.146Z,4.17
2019-05-15T09:15:10.474Z,3.87
2019-05-15T09:17:40.174Z,3.80
2019-05-15T09:20:09.389Z,3.73
2019-05-15T09:22:38.708Z,5.10
2019-05-15T09:25:09.447Z,4.00
2019-05-15T09:27:38.865Z,4.13
2019-05-15T09:30:10.806Z,4.20
2019-05-15T09:32:40.324Z,4.07
2019-05-15T09:35:09.747Z,4.30
2019-05-15T09:37:39.189Z,3.90
2019-05-15T09:40:09.003Z,4.30
2019-05-15T09:42:38.954Z,3.67
2019-05-15T09:45:08.877Z,3.53
2019-05-15T09:47:39.705Z,3.43
2019-05-15T09:50:09.484Z,3.63
2019-05-15T09:52:39.316Z,3.70
2019-05-15T09:55:09.208Z,3.50
2019-05-15T09:57:39.172Z,3.30
2019-05-15T10:00:09.117Z,4.30
2019-05-15T10:02:39.385Z,4.50
2019-05-15T10:05:11.387Z,5.20
2019-05-15T10:07:56.951Z,4.07
2019-05-15T10:10:28.322Z,3.83
2019-05-15T10:15:51.011Z,5.23
2019-05-15T10:18:21.677Z,3.67
2019-05-15T10:20:52.329Z,5.63
2019-05-15T10:23:21.665Z,4.77
2019-05-15T10:25:51.097Z,4.60
2019-05-15T10:28:20.494Z,4.10
2019-05-15T10:30:50.126Z,4.80
2019-05-15T10:33:20.392Z,4.40
2019-05-15T10:35:50.778Z,4.97
2019-05-15T10:38:19.910Z,5.23
2019-05-15T10:41:03.663Z,5.00
2019-05-15T10:43:20.988Z,4.90
2019-05-15T10:45:54.472Z,5.03
2019-05-15T10:48:21.766Z,5.10
2019-05-15T10:50:51.114Z,4.57
2019-05-15T10:53:20.887Z,5.03
2019-05-15T10:55:51.322Z,5.93
2019-05-15T10:58:22.396Z,4.40
2019-05-15T11:00:51.951Z,4.30
2019-05-15T11:03:21.391Z,5.20
2019-05-15T11:05:51.822Z,5.07
2019-05-15T11:08:21.471Z,4.53
2019-05-15T11:10:51.100Z,4.83
2019-05-15T11:16:05.067Z,5.63
2019-05-15T11:18:34.446Z,4.90
2019-05-15T11:21:03.815Z,4.97
2019-05-15T11:23:33.217Z,5.17
2019-05-15T11:26:02.573Z,5.10
2019-05-15T11:28:32.461Z,4.90
2019-05-15T11:31:01.964Z,5.03
2019-05-15T11:33:31.394Z,6.17
2019-05-15T11:36:05.723Z,4.97
2019-05-15T11:38:31.729Z,5.50
2019-05-15T11:41:01.104Z,4.33
2019-05-15T11:43:30.481Z,5.10
2019-05-15T11:45:59.939Z,4.70
2019-05-15T11:48:30.023Z,5.63
2019-05-15T11:50:59.874Z,5.47
2019-05-15T11:53:29.340Z,4.73
2019-05-15T11:56:00.067Z,4.87
2019-05-15T11:58:29.644Z,4.73
2019-05-15T12:00:58.981Z,5.23
2019-05-15T12:03:29.133Z,4.67
2019-05-15T12:06:13.519Z,5.17
2019-05-15T12:08:29.823Z,4.57
2019-05-15T12:10:59.529Z,5.13
2019-05-15T12:13:28.974Z,4.70
2019-05-15T12:15:58.915Z,5.40
2019-05-15T12:18:28.705Z,4.70
2019-05-15T12:20:59.612Z,4.83
2019-05-15T12:23:29.309Z,4.80
2019-05-15T12:25:59.816Z,4.83
2019-05-15T12:28:29.822Z,5.13
2019-05-15T12:30:59.907Z,5.30
2019-05-15T12:33:32.718Z,4.83
2019-05-15T12:36:02.013Z,5.10
2019-05-15T12:38:31.423Z,5.33
2019-05-15T13:01:16.899Z,5.17
2019-05-15T13:03:39.735Z,4.97
2019-05-15T13:06:09.100Z,4.27
2019-05-15T13:08:38.775Z,4.40
2019-05-15T13:13:35.118Z,4.07
2019-05-15T13:16:04.179Z,5.00
2019-05-15T13:18:33.565Z,4.80
2019-05-15T13:21:02.871Z,4.70
2019-05-15T13:23:33.062Z,4.43
2019-05-15T13:26:02.350Z,3.87
2019-05-15T13:28:31.834Z,3.93
2019-05-15T13:31:01.199Z,4.60
2019-05-15T13:33:30.539Z,4.63
2019-05-15T13:35:59.969Z,4.50
2019-05-15T13:38:29.335Z,4.33
2019-05-15T13:40:59.120Z,4.77
2019-05-15T13:43:29.156Z,4.30
2019-05-15T13:45:59.104Z,4.20
2019-05-15T13:48:29.582Z,3.97
2019-05-15T13:50:59.331Z,4.10
2019-05-15T13:53:28.963Z,4.17
2019-05-15T13:55:58.432Z,3.40
2019-05-15T13:58:28.363Z,4.23
2019-05-15T14:00:58.901Z,3.90
2019-05-15T14:03:28.780Z,4.47
2019-05-15T14:06:01.316Z,4.30
2019-05-15T14:08:30.780Z,3.27
2019-05-15T14:11:00.053Z,2.83
2019-05-15T14:13:29.490Z,3.20
2019-05-15T14:15:58.815Z,3.00
2019-05-15T14:18:28.753Z,3.20
2019-05-15T14:20:58.539Z,3.57
2019-05-15T14:23:29.536Z,3.37
2019-05-15T14:26:13.025Z,3.40
2019-05-15T14:28:29.747Z,3.80
2019-05-15T14:30:58.951Z,3.57
2019-05-15T14:33:29.600Z,4.23
2019-05-15T14:35:59.001Z,2.40
2019-05-15T14:38:29.016Z,2.97
2019-05-15T14:40:59.028Z,2.60
2019-05-15T14:43:29.895Z,2.60
2019-05-15T14:45:59.669Z,2.27
2019-05-15T14:48:28.833Z,2.43
2019-05-15T14:50:58.467Z,2.47
2019-05-15T14:53:29.539Z,3.10
2019-05-15T14:56:00.424Z,4.33
2019-05-15T14:58:30.091Z,3.03
2019-05-15T15:01:22.779Z,2.60
2019-05-15T15:03:52.287Z,3.40
2019-05-15T15:06:21.495Z,2.93
2019-05-15T15:08:50.879Z,3.43
2019-05-15T15:11:20.296Z,3.10
2019-05-15T15:13:49.696Z,3.53
2019-05-15T15:16:19.485Z,2.80
2019-05-15T15:18:48.946Z,2.73
2019-05-15T15:21:22.060Z,2.63
2019-05-15T15:23:50.106Z,2.13
2019-05-15T15:26:19.470Z,2.47
2019-05-15T15:28:49.099Z,2.53
2019-05-15T15:31:19.581Z,2.70
2019-05-15T15:33:49.226Z,3.23
2019-05-15T15:36:18.581Z,3.63
2019-05-15T15:38:48.503Z,2.80
2019-05-15T15:41:18.013Z,3.40
2019-05-15T15:43:48.533Z,3.00
2019-05-15T15:46:19.472Z,3.10
2019-05-15T15:48:49.154Z,3.07
2019-05-15T15:51:18.283Z,2.47
2019-05-15T15:53:47.954Z,2.70
2019-05-15T15:56:18.400Z,2.60
2019-05-15T15:58:48.779Z,3.53
2019-05-15T16:01:19.506Z,2.43
2019-05-15T16:05:10.898Z,2.73
2019-05-15T16:07:39.983Z,3.03
2019-05-15T16:10:09.244Z,2.57
2019-05-15T16:13:38.451Z,3.10
2019-05-15T16:16:08.552Z,2.80
2019-05-15T16:18:38.550Z,4.00
2019-05-15T16:21:08.451Z,3.50
2019-05-15T16:25:15.036Z,2.67
2019-05-15T16:27:44.390Z,3.70
2019-05-15T16:30:13.760Z,3.70
2019-05-15T16:32:43.172Z,4.23
2019-05-15T16:37:32.073Z,3.90
2019-05-15T16:41:18.474Z,3.10
2019-05-15T16:45:20.789Z,3.27
2019-05-15T16:47:50.576Z,3.67
2019-05-15T16:50:19.999Z,3.60
2019-05-15T16:52:49.414Z,3.73
2019-05-15T16:57:13.128Z,3.20
2019-05-15T16:59:42.321Z,3.60
2019-05-15T17:02:11.652Z,3.60
2019-05-15T17:04:41.101Z,3.43
2019-05-15T17:07:10.506Z,3.60
2019-05-15T17:09:39.776Z,3.73
2019-05-15T17:12:09.046Z,3.43
2019-05-15T17:14:38.770Z,3.43
2019-05-15T17:17:09.556Z,4.60
2019-05-15T17:19:39.008Z,3.83
2019-05-15T17:22:09.463Z,3.30
2019-05-15T17:24:39.073Z,4.43
2019-05-15T17:27:12.047Z,4.10
2019-05-15T17:29:39.428Z,3.60
2019-05-15T17:32:08.783Z,3.70
2019-05-15T17:34:38.338Z,3.90
2019-05-15T17:37:07.796Z,4.63
2019-05-15T17:39:38.883Z,4.93
2019-05-15T17:42:07.860Z,5.30
2019-05-15T17:44:38.233Z,4.90
2019-05-15T17:47:09.633Z,4.90
2019-05-15T17:49:38.716Z,4.50
2019-05-15T17:52:08.902Z,4.53
2019-05-15T17:54:38.350Z,5.20
2019-05-15T17:57:09.184Z,4.17
2019-05-15T17:59:38.787Z,4.93
2019-05-15T18:02:08.635Z,23.47
2019-05-15T18:04:38.755Z,5.87
2019-05-15T18:07:08.693Z,5.20
2019-05-15T18:09:50.316Z,4.53
2019-05-15T18:12:10.936Z,4.97
2019-05-15T18:14:40.332Z,6.50
2019-05-15T18:17:09.731Z,11.37
2019-05-15T18:19:39.306Z,5.13
2019-05-15T18:22:09.056Z,5.57
2019-05-15T18:24:39.692Z,4.87
2019-05-15T18:27:09.267Z,5.17
2019-05-15T18:29:38.739Z,5.93
2019-05-15T18:32:08.596Z,6.87
2019-05-15T18:34:39.639Z,6.00
2019-05-15T18:37:09.021Z,5.67
2019-05-15T18:39:38.912Z,6.53
2019-05-15T18:42:09.615Z,5.93
2019-05-15T18:44:39.404Z,6.10
2019-05-15T18:47:08.855Z,6.37
2019-05-15T18:49:39.313Z,6.07
2019-05-15T18:52:08.858Z,5.83
2019-05-15T18:54:38.691Z,5.93
2019-05-15T18:57:08.558Z,6.20
2019-05-15T18:59:37.972Z,6.27
2019-05-15T19:02:08.030Z,5.93
2019-05-15T19:04:38.277Z,7.00
2019-05-15T19:07:08.860Z,7.30
2019-05-15T19:09:38.717Z,6.67
2019-05-15T19:12:09.388Z,6.67
2019-05-15T19:14:39.507Z,7.53
2019-05-15T19:17:09.060Z,7.70
2019-05-15T19:19:38.817Z,7.93
2019-05-15T19:22:08.441Z,7.73
2019-05-15T19:24:40.022Z,7.53
2019-05-15T19:27:08.773Z,7.90
2019-05-15T19:29:37.962Z,7.00
2019-05-15T19:32:10.880Z,7.63
2019-05-15T19:34:38.785Z,8.07
2019-05-15T19:37:08.319Z,8.57
2019-05-15T19:39:38.565Z,8.50
2019-05-15T19:42:08.904Z,8.93
2019-05-15T19:44:38.468Z,8.97
2019-05-15T19:47:08.019Z,9.73
2019-05-15T19:49:37.849Z,8.73
2019-05-15T19:52:08.525Z,10.53
2019-05-15T19:54:37.998Z,9.50
